createdAt,value
2017-09-02T00:00:42.065Z,11.00
2017-09-02T00:03:09.575Z,11.00
2017-09-02T00:05:37.109Z,11.00
2017-09-02T00:08:04.630Z,11.00
2017-09-02T00:10:32.170Z,11.00
2017-09-02T00:12:59.697Z,11.00
2017-09-02T00:15:27.239Z,11.00
2017-09-02T00:17:54.758Z,11.00
2017-09-02T00:20:22.300Z,11.00
2017-09-02T00:22:49.810Z,11.00
2017-09-02T00:25:17.328Z,11.00
2017-09-02T00:27:44.861Z,11.00
2017-09-02T00:30:12.368Z,11.00
2017-09-02T00:32:39.900Z,11.00
2017-09-02T00:35:07.413Z,11.00
2017-09-02T00:37:34.953Z,11.00
2017-09-02T00:40:02.466Z,11.00
2017-09-02T00:42:30.013Z,11.00
2017-09-02T00:44:57.529Z,11.00
2017-09-02T00:47:25.057Z,11.00
2017-09-02T00:49:52.621Z,11.00
2017-09-02T00:52:20.164Z,11.00
2017-09-02T00:54:47.677Z,11.00
2017-09-02T00:57:15.204Z,11.00
2017-09-02T00:59:42.705Z,11.00
2017-09-02T01:02:10.214Z,11.00
2017-09-02T01:04:37.748Z,11.00
2017-09-02T01:07:05.256Z,11.00
2017-09-02T01:09:32.797Z,11.00
2017-09-02T01:12:00.304Z,11.00
2017-09-02T01:14:27.854Z,11.00
2017-09-02T01:16:55.362Z,11.00
2017-09-02T01:19:22.895Z,11.00
2017-09-02T01:21:50.412Z,11.00
2017-09-02T01:24:17.951Z,10.90
2017-09-02T01:26:45.462Z,11.00
2017-09-02T01:29:13.010Z,11.00
2017-09-02T01:31:40.532Z,11.00
2017-09-02T01:34:08.064Z,11.00
2017-09-02T01:36:35.603Z,10.90
2017-09-02T01:39:03.118Z,11.00
2017-09-02T01:41:34.856Z,11.00
2017-09-02T01:44:02.364Z,10.90
2017-09-02T01:46:29.893Z,10.90
2017-09-02T01:48:57.400Z,10.90
2017-09-02T01:51:24.944Z,10.90
2017-09-02T01:53:52.453Z,10.80
2017-09-02T01:56:19.997Z,10.90
2017-09-02T01:58:47.513Z,10.90
2017-09-02T02:01:15.053Z,10.90
2017-09-02T02:03:42.604Z,10.80
2017-09-02T02:06:10.123Z,10.80
2017-09-02T02:08:37.652Z,10.80
2017-09-02T02:11:12.243Z,10.80
2017-09-02T02:13:39.768Z,10.90
2017-09-02T02:16:07.300Z,10.90
2017-09-02T02:18:34.861Z,10.80
2017-09-02T02:21:02.385Z,10.90
2017-09-02T02:23:29.921Z,10.80
2017-09-02T02:25:57.436Z,10.80
2017-09-02T02:28:24.964Z,10.80
2017-09-02T02:30:52.476Z,10.80
2017-09-02T02:33:19.991Z,10.80
2017-09-02T02:35:47.535Z,10.80
2017-09-02T02:38:15.056Z,10.70
2017-09-02T02:40:42.584Z,10.70
2017-09-02T02:43:10.097Z,10.60
2017-09-02T02:45:37.637Z,10.60
2017-09-02T02:48:05.193Z,10.60
2017-09-02T02:50:32.724Z,10.60
2017-09-02T02:53:00.240Z,10.60
2017-09-02T02:55:27.772Z,10.60
2017-09-02T02:57:55.289Z,10.70
2017-09-02T03:00:22.843Z,10.60
2017-09-02T03:02:50.357Z,10.60
2017-09-02T03:05:17.896Z,10.60
2017-09-02T03:07:45.411Z,10.60
2017-09-02T03:10:13.337Z,10.60
2017-09-02T03:12:40.889Z,10.70
2017-09-02T03:15:08.405Z,10.70
2017-09-02T03:17:35.939Z,10.70
2017-09-02T03:20:03.445Z,10.70
2017-09-02T03:22:30.992Z,10.70
2017-09-02T03:24:58.505Z,10.70
2017-09-02T03:27:26.033Z,10.70
2017-09-02T03:29:53.567Z,10.70
2017-09-02T03:32:21.093Z,10.70
2017-09-02T03:34:48.626Z,10.70
2017-09-02T03:37:16.169Z,10.70
2017-09-02T03:39:43.681Z,10.70
2017-09-02T03:42:11.193Z,10.60
2017-09-02T03:44:38.725Z,10.60
2017-09-02T03:47:06.228Z,10.50
2017-09-02T03:49:33.752Z,10.50
2017-09-02T03:52:01.261Z,10.50
2017-09-02T03:54:28.789Z,10.50
2017-09-02T03:56:56.293Z,10.50
2017-09-02T03:59:23.812Z,10.50
2017-09-02T04:01:51.318Z,10.50
2017-09-02T04:04:18.853Z,10.50
2017-09-02T04:06:46.356Z,10.50
2017-09-02T04:09:13.909Z,10.50
2017-09-02T04:11:41.414Z,10.50
2017-09-02T04:14:08.928Z,10.50
2017-09-02T04:16:36.469Z,10.60
2017-09-02T04:19:03.984Z,10.50
2017-09-02T04:21:31.520Z,10.50
2017-09-02T04:23:59.038Z,10.50
2017-09-02T04:26:26.573Z,10.50
2017-09-02T04:28:54.094Z,10.50
2017-09-02T04:31:21.655Z,10.50
2017-09-02T04:33:49.948Z,10.50
2017-09-02T04:36:17.469Z,10.50
2017-09-02T04:38:45.005Z,10.60
2017-09-02T04:41:12.516Z,10.60
2017-09-02T04:43:40.074Z,10.50
2017-09-02T04:46:07.588Z,10.50
2017-09-02T04:48:35.138Z,10.50
2017-09-02T04:51:02.656Z,10.50
2017-09-02T04:53:30.196Z,10.60
2017-09-02T04:55:57.707Z,10.60
2017-09-02T04:58:25.229Z,10.60
2017-09-02T05:00:52.741Z,10.60
2017-09-02T05:03:20.280Z,10.70
2017-09-02T05:05:47.789Z,10.70
2017-09-02T05:08:15.297Z,10.80
2017-09-02T05:10:42.826Z,10.80
2017-09-02T05:13:10.337Z,10.80
2017-09-02T05:15:37.882Z,10.80
2017-09-02T05:18:05.398Z,10.80
2017-09-02T05:20:32.933Z,10.80
2017-09-02T05:23:00.449Z,10.80
2017-09-02T05:25:27.989Z,10.90
2017-09-02T05:27:56.423Z,10.90
2017-09-02T05:30:23.977Z,11.00
2017-09-02T05:32:51.505Z,11.00
2017-09-02T05:35:19.048Z,11.10
2017-09-02T05:37:46.560Z,11.10
2017-09-02T05:40:14.098Z,11.10
2017-09-02T05:42:41.626Z,11.10
2017-09-02T05:45:09.170Z,11.10
2017-09-02T05:47:36.697Z,11.10
2017-09-02T05:50:04.206Z,11.10
2017-09-02T05:52:31.745Z,11.10
2017-09-02T05:54:59.258Z,11.10
2017-09-02T05:57:26.799Z,11.10
2017-09-02T05:59:54.313Z,11.20
2017-09-02T06:02:21.849Z,11.10
2017-09-02T06:04:49.364Z,11.10
2017-09-02T06:07:16.907Z,11.00
2017-09-02T06:09:44.418Z,11.00
2017-09-02T06:12:12.372Z,11.00
2017-09-02T06:14:40.657Z,11.10
2017-09-02T06:17:08.205Z,11.10
2017-09-02T06:19:35.710Z,11.20
2017-09-02T06:22:03.224Z,11.20
2017-09-02T06:24:30.757Z,11.30
2017-09-02T06:26:58.274Z,11.30
2017-09-02T06:29:25.804Z,11.40
2017-09-02T06:31:53.330Z,11.60
2017-09-02T06:34:20.861Z,11.70
2017-09-02T06:36:48.374Z,11.80
2017-09-02T06:39:15.914Z,11.90
2017-09-02T06:41:43.420Z,12.00
2017-09-02T06:44:10.980Z,12.00
2017-09-02T06:46:38.518Z,12.00
2017-09-02T06:49:06.055Z,12.20
2017-09-02T06:51:33.566Z,12.30
2017-09-02T06:54:01.133Z,12.50
2017-09-02T06:56:28.649Z,12.70
2017-09-02T06:58:56.927Z,13.10
2017-09-02T07:01:24.470Z,13.00
2017-09-02T07:03:52.001Z,13.10
2017-09-02T07:06:19.653Z,13.20
2017-09-02T07:08:47.172Z,13.40
2017-09-02T07:11:14.720Z,13.30
2017-09-02T07:13:42.248Z,13.30
2017-09-02T07:16:09.792Z,13.40
2017-09-02T07:18:37.310Z,13.50
2017-09-02T07:21:14.641Z,13.50
2017-09-02T07:23:42.166Z,13.60
2017-09-02T07:26:09.721Z,13.60
2017-09-02T07:28:37.236Z,13.50
2017-09-02T07:31:04.772Z,13.30
2017-09-02T07:33:32.287Z,13.20
2017-09-02T07:35:59.804Z,13.20
2017-09-02T07:38:27.336Z,13.20
2017-09-02T07:40:54.856Z,13.00
2017-09-02T07:43:22.400Z,13.00
2017-09-02T07:45:49.915Z,13.10
2017-09-02T07:48:17.454Z,13.20
2017-09-02T07:50:44.983Z,13.30
2017-09-02T07:53:12.513Z,13.30
2017-09-02T07:55:40.059Z,13.30
2017-09-02T07:58:07.616Z,13.20
2017-09-02T08:00:35.139Z,13.10
2017-09-02T08:03:02.680Z,13.20
2017-09-02T08:05:30.228Z,13.20
2017-09-02T08:07:57.763Z,13.30
2017-09-02T08:10:25.295Z,13.40
2017-09-02T08:12:52.854Z,13.50
2017-09-02T08:15:20.368Z,13.30
2017-09-02T08:17:47.992Z,13.60
2017-09-02T08:20:15.538Z,13.60
2017-09-02T08:22:43.056Z,13.60
2017-09-02T08:25:10.602Z,13.70
2017-09-02T08:27:38.151Z,14.00
2017-09-02T08:30:05.698Z,14.00
2017-09-02T08:32:33.208Z,14.10
2017-09-02T08:35:00.753Z,14.20
2017-09-02T08:37:28.258Z,14.10
2017-09-02T08:39:55.800Z,14.10
2017-09-02T08:42:23.316Z,14.30
2017-09-02T08:44:50.854Z,14.60
2017-09-02T08:47:18.373Z,14.60
2017-09-02T08:49:45.915Z,14.60
2017-09-02T08:52:13.444Z,14.30
2017-09-02T08:54:40.951Z,14.40
2017-09-02T08:57:08.505Z,14.50
2017-09-02T08:59:36.024Z,14.30
2017-09-02T09:02:03.557Z,14.00
2017-09-02T09:04:31.068Z,13.80
2017-09-02T09:06:58.601Z,13.80
2017-09-02T09:09:26.112Z,13.90
2017-09-02T09:11:53.666Z,14.00
2017-09-02T09:14:21.191Z,14.10
2017-09-02T09:16:48.758Z,14.30
2017-09-02T09:19:16.271Z,14.30
2017-09-02T09:21:43.811Z,14.60
2017-09-02T09:24:11.339Z,14.80
2017-09-02T09:26:38.882Z,15.30
2017-09-02T09:29:06.392Z,15.60
2017-09-02T09:31:33.909Z,16.00
2017-09-02T09:34:01.444Z,15.90
2017-09-02T09:36:28.952Z,15.90
2017-09-02T09:38:56.484Z,16.00
2017-09-02T09:41:24.900Z,16.20
2017-09-02T09:43:52.447Z,16.40
2017-09-02T09:46:19.955Z,16.50
2017-09-02T09:48:47.479Z,16.50
2017-09-02T09:51:14.999Z,16.10
2017-09-02T09:53:42.606Z,15.80
2017-09-02T09:56:10.129Z,15.60
2017-09-02T09:58:37.672Z,15.10
2017-09-02T10:01:05.193Z,14.60
2017-09-02T10:03:32.702Z,14.50
2017-09-02T10:06:00.244Z,14.20
2017-09-02T10:08:27.768Z,14.00
2017-09-02T10:10:55.308Z,14.00
2017-09-02T10:13:22.838Z,14.20
2017-09-02T10:15:50.384Z,14.20
2017-09-02T10:18:18.669Z,14.40
2017-09-02T10:20:46.978Z,14.40
2017-09-02T10:23:14.497Z,14.40
2017-09-02T10:25:42.037Z,14.40
2017-09-02T10:28:09.560Z,14.60
2017-09-02T10:30:37.092Z,14.90
2017-09-02T10:33:04.601Z,15.10
2017-09-02T10:35:35.908Z,15.10
2017-09-02T10:38:03.448Z,15.20
2017-09-02T10:40:30.988Z,15.00
2017-09-02T10:42:58.495Z,14.90
2017-09-02T10:45:26.011Z,14.80
2017-09-02T10:47:53.548Z,14.90
2017-09-02T10:50:21.068Z,14.80
2017-09-02T10:52:48.600Z,14.70
2017-09-02T10:55:16.116Z,14.60
2017-09-02T10:57:43.666Z,14.50
2017-09-02T11:00:11.183Z,14.50
2017-09-02T11:02:38.733Z,14.50
2017-09-02T11:05:06.242Z,14.50
2017-09-02T11:07:33.788Z,14.50
2017-09-02T11:10:01.307Z,14.40
2017-09-02T11:12:28.845Z,14.30
2017-09-02T11:14:59.893Z,14.10
2017-09-02T11:17:27.433Z,14.00
2017-09-02T11:19:54.945Z,14.00
2017-09-02T11:22:22.476Z,13.90
2017-09-02T11:24:50.010Z,13.80
2017-09-02T11:27:18.396Z,13.70
2017-09-02T11:29:45.942Z,13.80
2017-09-02T11:32:13.472Z,13.70
2017-09-02T11:34:48.782Z,13.60
2017-09-02T11:37:16.369Z,13.60
2017-09-02T11:39:43.887Z,13.60
2017-09-02T11:42:11.424Z,13.70
2017-09-02T11:44:39.021Z,13.60
2017-09-02T11:47:06.529Z,13.40
2017-09-02T11:49:34.072Z,13.20
2017-09-02T11:52:01.581Z,13.10
2017-09-02T11:54:29.110Z,12.80
2017-09-02T11:56:56.633Z,12.30
2017-09-02T11:59:24.219Z,12.10
2017-09-02T12:01:51.737Z,12.10
2017-09-02T12:04:19.280Z,12.20
2017-09-02T12:06:47.560Z,12.40
2017-09-02T12:09:15.293Z,12.40
2017-09-02T12:11:42.814Z,12.50
2017-09-02T12:14:10.374Z,12.70
2017-09-02T12:16:37.890Z,12.90
2017-09-02T12:19:05.423Z,13.00
2017-09-02T12:21:32.932Z,13.10
2017-09-02T12:24:00.464Z,13.20
2017-09-02T12:26:28.144Z,13.20
2017-09-02T12:28:55.750Z,13.10
2017-09-02T12:31:23.334Z,13.10
2017-09-02T12:33:50.896Z,13.20
2017-09-02T12:36:18.421Z,13.30
2017-09-02T12:38:45.960Z,13.40
2017-09-02T12:41:13.479Z,13.50
2017-09-02T12:43:41.080Z,13.40
2017-09-02T12:46:08.625Z,13.40
2017-09-02T12:48:36.212Z,13.40
2017-09-02T12:51:03.760Z,13.50
2017-09-02T12:53:31.280Z,13.50
2017-09-02T12:55:58.829Z,13.50
2017-09-02T12:58:26.354Z,13.40
2017-09-02T13:00:53.904Z,13.40
2017-09-02T13:03:21.431Z,13.40
2017-09-02T13:05:48.974Z,13.40
2017-09-02T13:08:16.500Z,13.50
2017-09-02T13:10:44.058Z,13.60
2017-09-02T13:13:12.534Z,13.90
2017-09-02T13:15:40.081Z,13.90
2017-09-02T13:18:07.629Z,14.10
2017-09-02T13:20:35.161Z,14.40
2017-09-02T13:23:02.689Z,14.70
2017-09-02T13:25:30.289Z,15.00
2017-09-02T13:27:57.811Z,15.50
2017-09-02T13:30:25.409Z,15.90
2017-09-02T13:32:52.968Z,15.90
2017-09-02T13:35:20.526Z,16.10
2017-09-02T13:37:48.105Z,16.20
2017-09-02T13:40:15.678Z,16.20
2017-09-02T13:42:43.233Z,16.20
2017-09-02T13:45:10.855Z,16.20
2017-09-02T13:47:38.382Z,16.40
2017-09-02T13:50:06.001Z,16.70
2017-09-02T13:52:33.577Z,16.50
2017-09-02T13:55:01.103Z,16.50
2017-09-02T13:57:28.638Z,16.70
2017-09-02T13:59:56.149Z,17.00
2017-09-02T14:02:23.680Z,17.00
2017-09-02T14:04:51.194Z,17.10
2017-09-02T14:07:18.729Z,17.10
2017-09-02T14:09:46.240Z,17.20
2017-09-02T14:12:13.769Z,16.90
2017-09-02T14:14:41.276Z,16.70
2017-09-02T14:17:08.796Z,16.70
2017-09-02T14:19:36.896Z,17.00
2017-09-02T14:22:04.436Z,17.20
2017-09-02T14:24:31.953Z,17.40
2017-09-02T14:26:59.497Z,17.60
2017-09-02T14:29:27.018Z,17.40
2017-09-02T14:31:54.544Z,17.10
2017-09-02T14:34:22.060Z,17.00
2017-09-02T14:36:49.588Z,16.80
2017-09-02T14:39:17.096Z,16.80
2017-09-02T14:41:44.623Z,16.70
2017-09-02T14:44:12.143Z,16.60
2017-09-02T14:46:39.697Z,16.10
2017-09-02T14:49:07.214Z,16.00
2017-09-02T14:51:34.715Z,16.00
2017-09-02T14:54:02.249Z,15.90
2017-09-02T14:56:29.752Z,15.90
2017-09-02T14:58:57.280Z,15.90
2017-09-02T15:01:24.800Z,15.80
2017-09-02T15:03:52.328Z,15.80
2017-09-02T15:06:19.836Z,15.60
2017-09-02T15:08:47.377Z,15.30
2017-09-02T15:11:14.884Z,15.20
2017-09-02T15:13:42.412Z,15.00
2017-09-02T15:16:09.934Z,14.90
2017-09-02T15:18:37.464Z,15.00
2017-09-02T15:21:04.977Z,15.00
2017-09-02T15:23:32.516Z,14.60
2017-09-02T15:26:00.044Z,14.50
2017-09-02T15:28:27.569Z,14.50
2017-09-02T15:30:55.089Z,14.50
2017-09-02T15:33:22.629Z,14.50
2017-09-02T15:36:00.202Z,14.60
2017-09-02T15:38:27.735Z,14.50
2017-09-02T15:40:55.254Z,14.40
2017-09-02T15:43:22.796Z,14.30
2017-09-02T15:45:50.337Z,14.20
2017-09-02T15:48:17.882Z,14.10
2017-09-02T15:50:48.573Z,14.00
2017-09-02T15:53:17.989Z,14.00
2017-09-02T15:55:49.299Z,13.90
2017-09-02T15:58:16.840Z,13.80
2017-09-02T16:00:44.376Z,13.80
2017-09-02T16:03:11.887Z,13.80
2017-09-02T16:05:39.432Z,13.70
2017-09-02T16:08:06.945Z,13.70
2017-09-02T16:10:34.476Z,13.60
2017-09-02T16:13:01.993Z,13.60
2017-09-02T16:15:29.654Z,13.60
2017-09-02T16:17:57.167Z,13.60
2017-09-02T16:20:24.741Z,13.50
2017-09-02T16:22:52.256Z,13.40
2017-09-02T16:25:19.780Z,13.40
2017-09-02T16:27:47.283Z,13.30
2017-09-02T16:30:14.803Z,13.20
2017-09-02T16:32:42.346Z,13.10
2017-09-02T16:35:09.864Z,13.10
